sensor_id;sensor_type;location;lat;lon;timestamp;P1;durP1;ratioP1;P2;durP2;ratioP2
6983;SDS011;3532;51.118;7.210;2022-07-25T00:00:04;7.83;;;7.13;;
6983;SDS011;3532;51.118;7.210;2022-07-25T00:02:30;7.67;;;6.87;;
6983;SDS011;3532;51.118;7.210;2022-07-25T00:04:56;6.83;;;6.23;;
6983;SDS011;3532;51.118;7.210;2022-07-25T00:07:21;7.37;;;6.87;;
6983;SDS011;3532;51.118;7.210;2022-07-25T00:09:46;7.60;;;6.90;;
6983;SDS011;3532;51.118;7.210;2022-07-25T00:12:12;7.03;;;6.40;;
6983;SDS011;3532;51.118;7.210;2022-07-25T00:14:37;6.50;;;5.87;;
6983;SDS011;3532;51.118;7.210;2022-07-25T00:17:02;6.63;;;6.13;;
6983;SDS011;3532;51.118;7.210;2022-07-25T00:19:28;7.27;;;6.57;;
6983;SDS011;3532;51.118;7.210;2022-07-25T00:21:53;8.03;;;6.93;;
6983;SDS011;3532;51.118;7.210;2022-07-25T00:24:18;7.27;;;6.57;;
6983;SDS011;3532;51.118;7.210;2022-07-25T00:26:44;6.97;;;6.37;;
6983;SDS011;3532;51.118;7.210;2022-07-25T00:29:09;6.93;;;6.30;;
6983;SDS011;3532;51.118;7.210;2022-07-25T00:31:34;6.43;;;5.83;;
6983;SDS011;3532;51.118;7.210;2022-07-25T00:34:00;6.57;;;6.07;;
6983;SDS011;3532;51.118;7.210;2022-07-25T00:36:25;6.97;;;6.27;;
6983;SDS011;3532;51.118;7.210;2022-07-25T00:38:50;6.47;;;5.97;;
6983;SDS011;3532;51.118;7.210;2022-07-25T00:41:16;6.63;;;6.13;;
6983;SDS011;3532;51.118;7.210;2022-07-25T00:43:42;7.43;;;6.73;;
6983;SDS011;3532;51.118;7.210;2022-07-25T00:46:10;8.33;;;6.77;;
6983;SDS011;3532;51.118;7.210;2022-07-25T00:48:37;6.83;;;6.23;;
6983;SDS011;3532;51.118;7.210;2022-07-25T00:51:02;7.00;;;6.40;;
6983;SDS011;3532;51.118;7.210;2022-07-25T00:53:27;7.10;;;6.37;;
6983;SDS011;3532;51.118;7.210;2022-07-25T00:55:54;6.90;;;6.30;;
6983;SDS011;3532;51.118;7.210;2022-07-25T00:58:19;7.43;;;6.73;;
6983;SDS011;3532;51.118;7.210;2022-07-25T01:00:45;8.40;;;6.77;;
6983;SDS011;3532;51.118;7.210;2022-07-25T01:03:11;7.33;;;6.63;;
6983;SDS011;3532;51.118;7.210;2022-07-25T01:05:36;7.53;;;6.83;;
6983;SDS011;3532;51.118;7.210;2022-07-25T01:08:02;7.03;;;5.90;;
6983;SDS011;3532;51.118;7.210;2022-07-25T01:10:29;6.37;;;5.77;;
6983;SDS011;3532;51.118;7.210;2022-07-25T01:12:56;7.27;;;6.63;;
6983;SDS011;3532;51.118;7.210;2022-07-25T01:15:22;7.17;;;6.57;;
6983;SDS011;3532;51.118;7.210;2022-07-25T01:17:48;7.50;;;6.80;;
6983;SDS011;3532;51.118;7.210;2022-07-25T01:20:20;6.77;;;6.17;;
6983;SDS011;3532;51.118;7.210;2022-07-25T01:22:47;6.90;;;6.30;;
6983;SDS011;3532;51.118;7.210;2022-07-25T01:25:13;7.00;;;6.30;;
6983;SDS011;3532;51.118;7.210;2022-07-25T01:27:39;6.47;;;5.87;;
6983;SDS011;3532;51.118;7.210;2022-07-25T01:30:06;7.10;;;6.50;;
6983;SDS011;3532;51.118;7.210;2022-07-25T01:32:33;7.60;;;6.67;;
6983;SDS011;3532;51.118;7.210;2022-07-25T01:34:59;7.97;;;6.17;;
6983;SDS011;3532;51.118;7.210;2022-07-25T01:37:24;7.07;;;6.43;;
6983;SDS011;3532;51.118;7.210;2022-07-25T01:39:49;7.50;;;6.80;;
6983;SDS011;3532;51.118;7.210;2022-07-25T01:42:15;6.90;;;6.20;;
6983;SDS011;3532;51.118;7.210;2022-07-25T01:44:40;8.50;;;6.43;;
6983;SDS011;3532;51.118;7.210;2022-07-25T01:47:06;9.43;;;7.00;;
6983;SDS011;3532;51.118;7.210;2022-07-25T01:49:31;7.20;;;6.57;;
6983;SDS011;3532;51.118;7.210;2022-07-25T01:51:56;6.90;;;6.30;;
6983;SDS011;3532;51.118;7.210;2022-07-25T01:54:22;7.00;;;6.50;;
6983;SDS011;3532;51.118;7.210;2022-07-25T01:56:47;7.10;;;6.40;;
6983;SDS011;3532;51.118;7.210;2022-07-25T01:59:12;7.30;;;6.70;;
6983;SDS011;3532;51.118;7.210;2022-07-25T02:01:38;6.43;;;5.83;;
6983;SDS011;3532;51.118;7.210;2022-07-25T02:04:04;7.73;;;7.03;;
6983;SDS011;3532;51.118;7.210;2022-07-25T02:06:29;6.70;;;6.10;;
6983;SDS011;3532;51.118;7.210;2022-07-25T02:08:55;8.20;;;7.50;;
6983;SDS011;3532;51.118;7.210;2022-07-25T02:11:20;7.40;;;6.80;;
6983;SDS011;3532;51.118;7.210;2022-07-25T02:13:46;7.07;;;6.50;;
6983;SDS011;3532;51.118;7.210;2022-07-25T02:16:11;7.27;;;6.57;;
6983;SDS011;3532;51.118;7.210;2022-07-25T02:18:37;6.90;;;6.30;;
6983;SDS011;3532;51.118;7.210;2022-07-25T02:21:02;6.70;;;6.10;;
6983;SDS011;3532;51.118;7.210;2022-07-25T02:23:31;7.20;;;6.60;;
6983;SDS011;3532;51.118;7.210;2022-07-25T02:25:56;7.27;;;6.57;;
6983;SDS011;3532;51.118;7.210;2022-07-25T02:28:22;7.43;;;6.73;;
6983;SDS011;3532;51.118;7.210;2022-07-25T02:30:47;6.97;;;6.37;;
6983;SDS011;3532;51.118;7.210;2022-07-25T02:33:12;6.80;;;6.23;;
6983;SDS011;3532;51.118;7.210;2022-07-25T02:35:38;6.93;;;6.33;;
6983;SDS011;3532;51.118;7.210;2022-07-25T02:38:03;7.80;;;6.90;;
6983;SDS011;3532;51.118;7.210;2022-07-25T02:40:28;6.60;;;6.07;;
6983;SDS011;3532;51.118;7.210;2022-07-25T02:42:53;7.03;;;6.37;;
6983;SDS011;3532;51.118;7.210;2022-07-25T02:45:19;6.73;;;6.10;;
6983;SDS011;3532;51.118;7.210;2022-07-25T02:47:44;6.70;;;6.20;;
6983;SDS011;3532;51.118;7.210;2022-07-25T02:50:10;8.37;;;7.00;;
6983;SDS011;3532;51.118;7.210;2022-07-25T02:52:35;8.83;;;7.20;;
6983;SDS011;3532;51.118;7.210;2022-07-25T02:55:00;7.20;;;6.60;;
6983;SDS011;3532;51.118;7.210;2022-07-25T02:57:26;8.00;;;7.30;;
6983;SDS011;3532;51.118;7.210;2022-07-25T02:59:51;8.07;;;6.77;;
6983;SDS011;3532;51.118;7.210;2022-07-25T03:02:16;7.10;;;6.50;;
6983;SDS011;3532;51.118;7.210;2022-07-25T03:04:41;7.23;;;6.53;;
6983;SDS011;3532;51.118;7.210;2022-07-25T03:07:07;6.73;;;6.03;;
6983;SDS011;3532;51.118;7.210;2022-07-25T03:09:32;7.00;;;6.13;;
6983;SDS011;3532;51.118;7.210;2022-07-25T03:11:58;7.23;;;6.63;;
6983;SDS011;3532;51.118;7.210;2022-07-25T03:14:23;7.00;;;6.40;;
6983;SDS011;3532;51.118;7.210;2022-07-25T03:16:48;6.57;;;6.07;;
6983;SDS011;3532;51.118;7.210;2022-07-25T03:19:13;7.27;;;6.73;;
6983;SDS011;3532;51.118;7.210;2022-07-25T03:21:39;8.00;;;6.83;;
6983;SDS011;3532;51.118;7.210;2022-07-25T03:24:04;7.20;;;6.60;;
6983;SDS011;3532;51.118;7.210;2022-07-25T03:26:30;7.27;;;6.57;;
6983;SDS011;3532;51.118;7.210;2022-07-25T03:28:55;7.13;;;6.50;;
6983;SDS011;3532;51.118;7.210;2022-07-25T03:31:20;6.60;;;5.97;;
6983;SDS011;3532;51.118;7.210;2022-07-25T03:33:46;8.40;;;6.47;;
6983;SDS011;3532;51.118;7.210;2022-07-25T03:36:11;6.63;;;6.03;;
6983;SDS011;3532;51.118;7.210;2022-07-25T03:38:36;6.97;;;6.10;;
6983;SDS011;3532;51.118;7.210;2022-07-25T03:41:02;8.17;;;7.37;;
6983;SDS011;3532;51.118;7.210;2022-07-25T03:43:29;8.07;;;6.27;;
6983;SDS011;3532;51.118;7.210;2022-07-25T03:45:54;6.90;;;6.27;;
6983;SDS011;3532;51.118;7.210;2022-07-25T03:48:20;7.57;;;6.87;;
6983;SDS011;3532;51.118;7.210;2022-07-25T03:50:45;6.57;;;5.97;;
6983;SDS011;3532;51.118;7.210;2022-07-25T03:53:10;6.97;;;6.43;;
6983;SDS011;3532;51.118;7.210;2022-07-25T03:55:36;6.83;;;6.23;;
6983;SDS011;3532;51.118;7.210;2022-07-25T03:58:03;9.67;;;6.30;;
6983;SDS011;3532;51.118;7.210;2022-07-25T04:00:28;8.27;;;6.53;;
6983;SDS011;3532;51.118;7.210;2022-07-25T04:02:54;7.10;;;6.50;;
6983;SDS011;3532;51.118;7.210;2022-07-25T04:05:19;7.37;;;6.43;;
6983;SDS011;3532;51.118;7.210;2022-07-25T04:07:44;8.73;;;6.60;;
6983;SDS011;3532;51.118;7.210;2022-07-25T04:10:10;8.23;;;7.43;;
6983;SDS011;3532;51.118;7.210;2022-07-25T04:12:35;9.33;;;6.40;;
6983;SDS011;3532;51.118;7.210;2022-07-25T04:15:01;6.20;;;5.73;;
6983;SDS011;3532;51.118;7.210;2022-07-25T04:17:26;7.23;;;6.53;;
6983;SDS011;3532;51.118;7.210;2022-07-25T04:19:51;6.67;;;6.07;;
6983;SDS011;3532;51.118;7.210;2022-07-25T04:22:17;6.47;;;5.87;;
6983;SDS011;3532;51.118;7.210;2022-07-25T04:24:42;6.73;;;6.13;;
6983;SDS011;3532;51.118;7.210;2022-07-25T04:27:07;7.47;;;6.57;;
6983;SDS011;3532;51.118;7.210;2022-07-25T04:29:33;6.23;;;5.73;;
6983;SDS011;3532;51.118;7.210;2022-07-25T04:31:58;7.43;;;6.83;;
6983;SDS011;3532;51.118;7.210;2022-07-25T04:34:23;6.50;;;6.00;;
6983;SDS011;3532;51.118;7.210;2022-07-25T04:36:48;7.17;;;6.47;;
6983;SDS011;3532;51.118;7.210;2022-07-25T04:39:14;7.80;;;7.10;;
6983;SDS011;3532;51.118;7.210;2022-07-25T04:41:39;7.93;;;7.13;;
6983;SDS011;3532;51.118;7.210;2022-07-25T04:44:05;6.87;;;6.17;;
6983;SDS011;3532;51.118;7.210;2022-07-25T04:46:31;7.20;;;6.60;;
6983;SDS011;3532;51.118;7.210;2022-07-25T04:48:57;6.80;;;6.23;;
6983;SDS011;3532;51.118;7.210;2022-07-25T04:51:22;7.70;;;6.90;;
6983;SDS011;3532;51.118;7.210;2022-07-25T04:53:47;7.60;;;6.90;;
6983;SDS011;3532;51.118;7.210;2022-07-25T04:56:13;7.60;;;6.90;;
6983;SDS011;3532;51.118;7.210;2022-07-25T04:58:38;6.83;;;6.13;;
6983;SDS011;3532;51.118;7.210;2022-07-25T05:01:04;7.23;;;6.50;;
6983;SDS011;3532;51.118;7.210;2022-07-25T05:03:29;6.70;;;6.10;;
6983;SDS011;3532;51.118;7.210;2022-07-25T05:05:54;6.87;;;6.27;;
6983;SDS011;3532;51.118;7.210;2022-07-25T05:08:20;6.97;;;6.27;;
6983;SDS011;3532;51.118;7.210;2022-07-25T05:10:45;7.03;;;6.33;;
6983;SDS011;3532;51.118;7.210;2022-07-25T05:13:10;6.50;;;5.80;;
6983;SDS011;3532;51.118;7.210;2022-07-25T05:15:36;7.07;;;6.40;;
6983;SDS011;3532;51.118;7.210;2022-07-25T05:18:01;6.63;;;6.03;;
6983;SDS011;3532;51.118;7.210;2022-07-25T05:20:26;6.97;;;6.30;;
6983;SDS011;3532;51.118;7.210;2022-07-25T05:22:52;6.40;;;5.90;;
6983;SDS011;3532;51.118;7.210;2022-07-25T05:25:17;6.50;;;6.00;;
6983;SDS011;3532;51.118;7.210;2022-07-25T05:27:43;7.23;;;6.53;;
6983;SDS011;3532;51.118;7.210;2022-07-25T05:30:09;7.13;;;6.50;;
6983;SDS011;3532;51.118;7.210;2022-07-25T05:32:36;6.13;;;5.63;;
6983;SDS011;3532;51.118;7.210;2022-07-25T05:35:02;5.97;;;5.47;;
6983;SDS011;3532;51.118;7.210;2022-07-25T05:37:28;7.67;;;5.70;;
6983;SDS011;3532;51.118;7.210;2022-07-25T05:39:53;7.27;;;6.57;;
6983;SDS011;3532;51.118;7.210;2022-07-25T05:42:19;7.20;;;6.10;;
6983;SDS011;3532;51.118;7.210;2022-07-25T05:44:44;6.90;;;6.20;;
6983;SDS011;3532;51.118;7.210;2022-07-25T05:47:10;6.70;;;6.10;;
6983;SDS011;3532;51.118;7.210;2022-07-25T05:49:36;6.63;;;6.03;;
6983;SDS011;3532;51.118;7.210;2022-07-25T05:52:02;7.93;;;6.03;;
6983;SDS011;3532;51.118;7.210;2022-07-25T05:54:27;7.87;;;5.97;;
6983;SDS011;3532;51.118;7.210;2022-07-25T05:56:53;6.30;;;5.80;;
6983;SDS011;3532;51.118;7.210;2022-07-25T05:59:18;6.80;;;6.20;;
6983;SDS011;3532;51.118;7.210;2022-07-25T06:01:43;7.33;;;6.73;;
6983;SDS011;3532;51.118;7.210;2022-07-25T06:04:09;12.33;;;6.33;;
6983;SDS011;3532;51.118;7.210;2022-07-25T06:06:34;6.53;;;6.03;;
6983;SDS011;3532;51.118;7.210;2022-07-25T06:08:59;7.00;;;6.30;;
6983;SDS011;3532;51.118;7.210;2022-07-25T06:11:24;6.27;;;5.70;;
6983;SDS011;3532;51.118;7.210;2022-07-25T06:13:54;7.20;;;6.60;;
6983;SDS011;3532;51.118;7.210;2022-07-25T06:16:19;6.93;;;6.17;;
6983;SDS011;3532;51.118;7.210;2022-07-25T06:18:45;6.27;;;5.67;;
6983;SDS011;3532;51.118;7.210;2022-07-25T06:21:10;6.03;;;5.53;;
6983;SDS011;3532;51.118;7.210;2022-07-25T06:23:35;6.47;;;5.97;;
6983;SDS011;3532;51.118;7.210;2022-07-25T06:26:01;6.57;;;5.97;;
6983;SDS011;3532;51.118;7.210;2022-07-25T06:28:26;6.57;;;5.97;;
6983;SDS011;3532;51.118;7.210;2022-07-25T06:30:51;7.63;;;6.90;;
6983;SDS011;3532;51.118;7.210;2022-07-25T06:33:17;8.37;;;6.43;;
6983;SDS011;3532;51.118;7.210;2022-07-25T06:35:42;7.07;;;6.47;;
6983;SDS011;3532;51.118;7.210;2022-07-25T06:38:07;6.43;;;5.83;;
6983;SDS011;3532;51.118;7.210;2022-07-25T06:40:33;6.73;;;6.13;;
6983;SDS011;3532;51.118;7.210;2022-07-25T06:42:58;7.67;;;6.57;;
6983;SDS011;3532;51.118;7.210;2022-07-25T06:45:23;5.97;;;5.57;;
6983;SDS011;3532;51.118;7.210;2022-07-25T06:47:49;8.20;;;6.10;;
6983;SDS011;3532;51.118;7.210;2022-07-25T06:50:16;7.03;;;6.50;;
6983;SDS011;3532;51.118;7.210;2022-07-25T06:52:42;6.33;;;5.60;;
6983;SDS011;3532;51.118;7.210;2022-07-25T06:55:09;6.57;;;6.07;;
6983;SDS011;3532;51.118;7.210;2022-07-25T06:57:35;7.13;;;6.53;;
6983;SDS011;3532;51.118;7.210;2022-07-25T07:00:01;6.57;;;6.03;;
6983;SDS011;3532;51.118;7.210;2022-07-25T07:02:30;7.10;;;6.43;;
6983;SDS011;3532;51.118;7.210;2022-07-25T07:04:55;7.30;;;6.60;;
6983;SDS011;3532;51.118;7.210;2022-07-25T07:07:21;6.37;;;5.80;;
6983;SDS011;3532;51.118;7.210;2022-07-25T07:09:46;6.50;;;6.00;;
6983;SDS011;3532;51.118;7.210;2022-07-25T07:12:11;6.87;;;6.37;;
6983;SDS011;3532;51.118;7.210;2022-07-25T07:14:37;8.43;;;6.17;;
6983;SDS011;3532;51.118;7.210;2022-07-25T07:17:02;7.10;;;6.50;;
6983;SDS011;3532;51.118;7.210;2022-07-25T07:19:28;6.43;;;5.90;;
6983;SDS011;3532;51.118;7.210;2022-07-25T07:21:54;7.03;;;6.33;;
6983;SDS011;3532;51.118;7.210;2022-07-25T07:24:19;6.30;;;5.70;;
6983;SDS011;3532;51.118;7.210;2022-07-25T07:26:44;7.37;;;6.77;;
6983;SDS011;3532;51.118;7.210;2022-07-25T07:29:10;6.40;;;5.90;;
6983;SDS011;3532;51.118;7.210;2022-07-25T07:31:35;6.77;;;6.17;;
6983;SDS011;3532;51.118;7.210;2022-07-25T07:34:00;6.93;;;6.23;;
6983;SDS011;3532;51.118;7.210;2022-07-25T07:36:26;6.77;;;6.20;;
6983;SDS011;3532;51.118;7.210;2022-07-25T07:38:52;6.87;;;6.37;;
6983;SDS011;3532;51.118;7.210;2022-07-25T07:41:17;7.07;;;6.47;;
6983;SDS011;3532;51.118;7.210;2022-07-25T07:43:43;7.07;;;6.37;;
6983;SDS011;3532;51.118;7.210;2022-07-25T07:46:09;6.50;;;6.00;;
6983;SDS011;3532;51.118;7.210;2022-07-25T07:48:34;6.50;;;5.90;;
6983;SDS011;3532;51.118;7.210;2022-07-25T07:51:00;7.07;;;6.47;;
6983;SDS011;3532;51.118;7.210;2022-07-25T07:53:26;7.13;;;6.40;;
6983;SDS011;3532;51.118;7.210;2022-07-25T07:56:10;6.67;;;6.07;;
6983;SDS011;3532;51.118;7.210;2022-07-25T07:58:36;6.47;;;5.87;;
6983;SDS011;3532;51.118;7.210;2022-07-25T08:01:01;6.40;;;5.80;;
6983;SDS011;3532;51.118;7.210;2022-07-25T08:03:27;7.13;;;6.43;;
6983;SDS011;3532;51.118;7.210;2022-07-25T08:05:53;6.67;;;6.07;;
6983;SDS011;3532;51.118;7.210;2022-07-25T08:08:18;9.07;;;6.73;;
6983;SDS011;3532;51.118;7.210;2022-07-25T08:10:44;9.33;;;5.70;;
6983;SDS011;3532;51.118;7.210;2022-07-25T08:15:44;7.13;;;6.20;;
6983;SDS011;3532;51.118;7.210;2022-07-25T08:18:11;6.70;;;6.03;;
6983;SDS011;3532;51.118;7.210;2022-07-25T08:20:37;7.23;;;6.13;;
6983;SDS011;3532;51.118;7.210;2022-07-25T08:23:03;7.40;;;6.43;;
6983;SDS011;3532;51.118;7.210;2022-07-25T08:25:28;6.70;;;6.10;;
6983;SDS011;3532;51.118;7.210;2022-07-25T08:27:54;5.97;;;5.53;;
6983;SDS011;3532;51.118;7.210;2022-07-25T08:30:19;6.80;;;6.00;;
6983;SDS011;3532;51.118;7.210;2022-07-25T08:35:24;7.50;;;5.60;;
6983;SDS011;3532;51.118;7.210;2022-07-25T08:37:51;5.80;;;5.30;;
6983;SDS011;3532;51.118;7.210;2022-07-25T08:40:18;6.57;;;5.90;;
6983;SDS011;3532;51.118;7.210;2022-07-25T08:42:44;6.37;;;5.87;;
6983;SDS011;3532;51.118;7.210;2022-07-25T08:45:10;6.07;;;5.40;;
6983;SDS011;3532;51.118;7.210;2022-07-25T08:47:43;6.47;;;5.83;;
6983;SDS011;3532;51.118;7.210;2022-07-25T08:50:13;6.67;;;5.47;;
6983;SDS011;3532;51.118;7.210;2022-07-25T08:52:43;6.47;;;5.97;;
6983;SDS011;3532;51.118;7.210;2022-07-25T08:55:12;6.47;;;5.87;;
6983;SDS011;3532;51.118;7.210;2022-07-25T08:57:39;6.77;;;6.17;;
6983;SDS011;3532;51.118;7.210;2022-07-25T09:00:08;7.53;;;6.53;;
6983;SDS011;3532;51.118;7.210;2022-07-25T09:02:35;6.87;;;6.27;;
6983;SDS011;3532;51.118;7.210;2022-07-25T09:05:01;9.00;;;6.47;;
6983;SDS011;3532;51.118;7.210;2022-07-25T09:07:33;6.87;;;6.27;;
6983;SDS011;3532;51.118;7.210;2022-07-25T09:12:41;6.70;;;6.10;;
6983;SDS011;3532;51.118;7.210;2022-07-25T09:15:07;7.97;;;6.40;;
6983;SDS011;3532;51.118;7.210;2022-07-25T09:17:34;8.57;;;6.30;;
6983;SDS011;3532;51.118;7.210;2022-07-25T09:20:00;7.40;;;6.10;;
6983;SDS011;3532;51.118;7.210;2022-07-25T09:22:26;7.30;;;6.70;;
6983;SDS011;3532;51.118;7.210;2022-07-25T09:24:51;7.00;;;6.40;;
6983;SDS011;3532;51.118;7.210;2022-07-25T09:27:17;7.33;;;6.53;;
6983;SDS011;3532;51.118;7.210;2022-07-25T09:29:43;7.97;;;7.10;;
6983;SDS011;3532;51.118;7.210;2022-07-25T09:32:13;7.07;;;5.93;;
6983;SDS011;3532;51.118;7.210;2022-07-25T09:34:47;7.17;;;6.47;;
6983;SDS011;3532;51.118;7.210;2022-07-25T09:37:15;8.20;;;6.37;;
6983;SDS011;3532;51.118;7.210;2022-07-25T09:39:44;6.67;;;6.03;;
6983;SDS011;3532;51.118;7.210;2022-07-25T09:44:56;6.73;;;6.03;;
6983;SDS011;3532;51.118;7.210;2022-07-25T09:47:26;6.33;;;5.77;;
6983;SDS011;3532;51.118;7.210;2022-07-25T09:49:52;6.20;;;5.60;;
6983;SDS011;3532;51.118;7.210;2022-07-25T09:52:17;6.83;;;6.13;;
6983;SDS011;3532;51.118;7.210;2022-07-25T09:54:43;6.87;;;6.20;;
6983;SDS011;3532;51.118;7.210;2022-07-25T09:57:08;6.80;;;5.77;;
6983;SDS011;3532;51.118;7.210;2022-07-25T09:59:34;7.67;;;6.87;;
6983;SDS011;3532;51.118;7.210;2022-07-25T10:04:55;6.53;;;5.93;;
6983;SDS011;3532;51.118;7.210;2022-07-25T10:07:28;6.47;;;5.93;;
6983;SDS011;3532;51.118;7.210;2022-07-25T10:09:54;7.30;;;6.60;;
6983;SDS011;3532;51.118;7.210;2022-07-25T10:12:20;6.73;;;6.13;;
6983;SDS011;3532;51.118;7.210;2022-07-25T10:17:31;7.73;;;6.40;;
6983;SDS011;3532;51.118;7.210;2022-07-25T10:19:57;7.10;;;6.40;;
6983;SDS011;3532;51.118;7.210;2022-07-25T10:25:23;6.67;;;5.93;;
6983;SDS011;3532;51.118;7.210;2022-07-25T10:27:49;7.13;;;6.43;;
6983;SDS011;3532;51.118;7.210;2022-07-25T10:30:23;6.73;;;6.10;;
6983;SDS011;3532;51.118;7.210;2022-07-25T10:33:00;6.90;;;6.30;;
6983;SDS011;3532;51.118;7.210;2022-07-25T10:35:30;6.80;;;6.07;;
6983;SDS011;3532;51.118;7.210;2022-07-25T10:37:56;6.70;;;5.97;;
6983;SDS011;3532;51.118;7.210;2022-07-25T10:40:42;7.00;;;6.10;;
6983;SDS011;3532;51.118;7.210;2022-07-25T10:45:41;8.50;;;6.70;;
6983;SDS011;3532;51.118;7.210;2022-07-25T10:48:08;8.60;;;6.30;;
6983;SDS011;3532;51.118;7.210;2022-07-25T10:50:45;9.47;;;6.43;;
6983;SDS011;3532;51.118;7.210;2022-07-25T10:53:14;6.80;;;6.10;;
6983;SDS011;3532;51.118;7.210;2022-07-25T10:55:39;8.03;;;6.57;;
6983;SDS011;3532;51.118;7.210;2022-07-25T10:58:04;8.97;;;6.37;;
6983;SDS011;3532;51.118;7.210;2022-07-25T11:00:32;6.93;;;6.23;;
6983;SDS011;3532;51.118;7.210;2022-07-25T11:02:58;7.00;;;5.90;;
6983;SDS011;3532;51.118;7.210;2022-07-25T11:05:23;11.03;;;6.43;;
6983;SDS011;3532;51.118;7.210;2022-07-25T11:07:50;7.93;;;7.00;;
6983;SDS011;3532;51.118;7.210;2022-07-25T11:10:24;6.97;;;6.30;;
6983;SDS011;3532;51.118;7.210;2022-07-25T11:12:51;7.33;;;6.63;;
6983;SDS011;3532;51.118;7.210;2022-07-25T11:15:19;6.70;;;6.10;;
6983;SDS011;3532;51.118;7.210;2022-07-25T11:17:52;11.87;;;7.03;;
6983;SDS011;3532;51.118;7.210;2022-07-25T11:20:19;8.00;;;6.97;;
6983;SDS011;3532;51.118;7.210;2022-07-25T11:22:51;6.67;;;6.07;;
6983;SDS011;3532;51.118;7.210;2022-07-25T11:25:19;7.50;;;6.83;;
6983;SDS011;3532;51.118;7.210;2022-07-25T11:27:48;10.10;;;7.90;;
6983;SDS011;3532;51.118;7.210;2022-07-25T11:30:15;8.97;;;6.93;;
6983;SDS011;3532;51.118;7.210;2022-07-25T11:32:42;7.90;;;7.10;;
6983;SDS011;3532;51.118;7.210;2022-07-25T11:35:09;10.67;;;7.30;;
6983;SDS011;3532;51.118;7.210;2022-07-25T11:37:37;8.50;;;7.00;;
6983;SDS011;3532;51.118;7.210;2022-07-25T11:40:04;8.23;;;6.13;;
6983;SDS011;3532;51.118;7.210;2022-07-25T11:42:44;10.00;;;7.33;;
6983;SDS011;3532;51.118;7.210;2022-07-25T11:45:21;8.80;;;8.00;;
6983;SDS011;3532;51.118;7.210;2022-07-25T11:48:04;10.37;;;7.90;;
6983;SDS011;3532;51.118;7.210;2022-07-25T11:50:32;9.43;;;7.57;;
6983;SDS011;3532;51.118;7.210;2022-07-25T11:52:58;7.90;;;7.17;;
6983;SDS011;3532;51.118;7.210;2022-07-25T11:55:26;7.50;;;6.67;;
6983;SDS011;3532;51.118;7.210;2022-07-25T11:57:56;7.97;;;7.27;;
6983;SDS011;3532;51.118;7.210;2022-07-25T12:00:22;8.80;;;7.13;;
6983;SDS011;3532;51.118;7.210;2022-07-25T12:02:47;8.37;;;7.57;;
6983;SDS011;3532;51.118;7.210;2022-07-25T12:05:14;8.17;;;6.87;;
6983;SDS011;3532;51.118;7.210;2022-07-25T12:07:42;7.83;;;7.13;;
6983;SDS011;3532;51.118;7.210;2022-07-25T12:10:14;7.83;;;7.10;;
6983;SDS011;3532;51.118;7.210;2022-07-25T12:12:44;10.13;;;6.90;;
6983;SDS011;3532;51.118;7.210;2022-07-25T12:15:15;7.43;;;6.50;;
6983;SDS011;3532;51.118;7.210;2022-07-25T12:17:44;6.37;;;5.27;;
6983;SDS011;3532;51.118;7.210;2022-07-25T12:20:17;6.27;;;5.67;;
6983;SDS011;3532;51.118;7.210;2022-07-25T12:22:43;7.60;;;5.80;;
6983;SDS011;3532;51.118;7.210;2022-07-25T12:25:10;5.83;;;5.23;;
6983;SDS011;3532;51.118;7.210;2022-07-25T12:27:36;7.93;;;5.87;;
6983;SDS011;3532;51.118;7.210;2022-07-25T12:30:03;5.67;;;4.97;;
6983;SDS011;3532;51.118;7.210;2022-07-25T12:32:29;8.70;;;5.70;;
6983;SDS011;3532;51.118;7.210;2022-07-25T12:34:54;4.93;;;4.50;;
6983;SDS011;3532;51.118;7.210;2022-07-25T12:37:20;6.70;;;5.03;;
6983;SDS011;3532;51.118;7.210;2022-07-25T12:39:45;5.30;;;4.80;;
6983;SDS011;3532;51.118;7.210;2022-07-25T12:42:11;4.47;;;4.17;;
6983;SDS011;3532;51.118;7.210;2022-07-25T12:44:36;5.10;;;4.60;;
6983;SDS011;3532;51.118;7.210;2022-07-25T12:47:02;6.33;;;4.90;;
6983;SDS011;3532;51.118;7.210;2022-07-25T12:49:27;5.17;;;4.17;;
6983;SDS011;3532;51.118;7.210;2022-07-25T12:51:53;7.10;;;4.70;;
6983;SDS011;3532;51.118;7.210;2022-07-25T12:54:18;5.00;;;4.50;;
6983;SDS011;3532;51.118;7.210;2022-07-25T12:56:43;5.40;;;4.67;;
6983;SDS011;3532;51.118;7.210;2022-07-25T12:59:09;7.10;;;4.70;;
6983;SDS011;3532;51.118;7.210;2022-07-25T13:01:34;6.50;;;5.23;;
6983;SDS011;3532;51.118;7.210;2022-07-25T13:03:59;5.70;;;5.13;;
6983;SDS011;3532;51.118;7.210;2022-07-25T13:06:25;5.10;;;4.60;;
6983;SDS011;3532;51.118;7.210;2022-07-25T13:08:50;5.53;;;4.93;;
6983;SDS011;3532;51.118;7.210;2022-07-25T13:11:15;5.20;;;4.70;;
6983;SDS011;3532;51.118;7.210;2022-07-25T13:13:41;5.93;;;4.33;;
6983;SDS011;3532;51.118;7.210;2022-07-25T13:16:06;6.67;;;4.57;;
6983;SDS011;3532;51.118;7.210;2022-07-25T13:18:32;6.90;;;4.60;;
6983;SDS011;3532;51.118;7.210;2022-07-25T13:20:57;9.00;;;4.80;;
6983;SDS011;3532;51.118;7.210;2022-07-25T13:23:24;5.20;;;4.70;;
6983;SDS011;3532;51.118;7.210;2022-07-25T13:25:49;5.03;;;4.33;;
6983;SDS011;3532;51.118;7.210;2022-07-25T13:28:16;5.33;;;4.30;;
6983;SDS011;3532;51.118;7.210;2022-07-25T13:30:41;4.97;;;3.77;;
6983;SDS011;3532;51.118;7.210;2022-07-25T13:33:06;5.13;;;4.37;;
6983;SDS011;3532;51.118;7.210;2022-07-25T13:35:34;4.60;;;4.17;;
6983;SDS011;3532;51.118;7.210;2022-07-25T13:38:00;5.47;;;4.40;;
6983;SDS011;3532;51.118;7.210;2022-07-25T13:40:25;4.47;;;4.00;;
6983;SDS011;3532;51.118;7.210;2022-07-25T13:42:50;3.70;;;3.40;;
6983;SDS011;3532;51.118;7.210;2022-07-25T13:45:16;5.13;;;4.27;;
6983;SDS011;3532;51.118;7.210;2022-07-25T13:47:42;6.53;;;3.77;;
6983;SDS011;3532;51.118;7.210;2022-07-25T13:50:07;8.27;;;3.90;;
6983;SDS011;3532;51.118;7.210;2022-07-25T13:52:32;5.63;;;3.90;;
6983;SDS011;3532;51.118;7.210;2022-07-25T13:54:58;3.43;;;3.13;;
6983;SDS011;3532;51.118;7.210;2022-07-25T13:57:23;11.37;;;3.77;;
6983;SDS011;3532;51.118;7.210;2022-07-25T13:59:48;4.83;;;3.13;;
6983;SDS011;3532;51.118;7.210;2022-07-25T14:02:14;3.40;;;3.10;;
6983;SDS011;3532;51.118;7.210;2022-07-25T14:04:39;4.57;;;3.33;;
6983;SDS011;3532;51.118;7.210;2022-07-25T14:07:05;4.20;;;2.90;;
6983;SDS011;3532;51.118;7.210;2022-07-25T14:09:30;5.37;;;3.40;;
6983;SDS011;3532;51.118;7.210;2022-07-25T14:11:55;8.37;;;3.93;;
6983;SDS011;3532;51.118;7.210;2022-07-25T14:14:21;7.83;;;2.87;;
6983;SDS011;3532;51.118;7.210;2022-07-25T14:16:46;6.33;;;3.27;;
6983;SDS011;3532;51.118;7.210;2022-07-25T14:19:12;5.37;;;3.00;;
6983;SDS011;3532;51.118;7.210;2022-07-25T14:21:38;6.07;;;2.97;;
6983;SDS011;3532;51.118;7.210;2022-07-25T14:24:03;6.07;;;2.93;;
6983;SDS011;3532;51.118;7.210;2022-07-25T14:26:29;3.43;;;2.73;;
6983;SDS011;3532;51.118;7.210;2022-07-25T14:28:55;3.73;;;2.53;;
6983;SDS011;3532;51.118;7.210;2022-07-25T14:31:20;5.60;;;2.93;;
6983;SDS011;3532;51.118;7.210;2022-07-25T14:33:46;5.73;;;3.40;;
6983;SDS011;3532;51.118;7.210;2022-07-25T14:36:11;3.87;;;2.63;;
6983;SDS011;3532;51.118;7.210;2022-07-25T14:38:37;4.77;;;2.50;;
6983;SDS011;3532;51.118;7.210;2022-07-25T14:41:02;7.13;;;2.73;;
6983;SDS011;3532;51.118;7.210;2022-07-25T14:43:28;3.70;;;2.47;;
6983;SDS011;3532;51.118;7.210;2022-07-25T14:45:53;4.53;;;2.53;;
6983;SDS011;3532;51.118;7.210;2022-07-25T14:48:18;5.10;;;3.10;;
6983;SDS011;3532;51.118;7.210;2022-07-25T14:50:44;6.10;;;2.47;;
6983;SDS011;3532;51.118;7.210;2022-07-25T14:53:10;5.57;;;2.67;;
6983;SDS011;3532;51.118;7.210;2022-07-25T14:55:37;5.80;;;2.73;;
6983;SDS011;3532;51.118;7.210;2022-07-25T14:58:02;5.07;;;2.97;;
6983;SDS011;3532;51.118;7.210;2022-07-25T15:00:28;4.40;;;2.60;;
6983;SDS011;3532;51.118;7.210;2022-07-25T15:02:53;5.27;;;3.03;;
6983;SDS011;3532;51.118;7.210;2022-07-25T15:05:19;4.17;;;2.33;;
6983;SDS011;3532;51.118;7.210;2022-07-25T15:07:44;6.27;;;2.63;;
6983;SDS011;3532;51.118;7.210;2022-07-25T15:10:09;3.63;;;2.77;;
6983;SDS011;3532;51.118;7.210;2022-07-25T15:12:35;7.90;;;3.00;;
6983;SDS011;3532;51.118;7.210;2022-07-25T15:15:00;4.23;;;2.63;;
6983;SDS011;3532;51.118;7.210;2022-07-25T15:17:25;6.30;;;2.90;;
6983;SDS011;3532;51.118;7.210;2022-07-25T15:19:51;5.57;;;2.80;;
6983;SDS011;3532;51.118;7.210;2022-07-25T15:22:16;5.13;;;3.17;;
6983;SDS011;3532;51.118;7.210;2022-07-25T15:24:41;4.07;;;2.77;;
6983;SDS011;3532;51.118;7.210;2022-07-25T15:27:07;4.73;;;3.07;;
6983;SDS011;3532;51.118;7.210;2022-07-25T15:29:33;3.60;;;2.60;;